sensor_id;sensor_type;location;lat;lon;timestamp;pressure;altitude;pressure_sealevel;temperature;humidity
49999;BME280;68071;45.062;7.356;2023-04-20T00:00:52;94660.59;;;11.16;65.16
49999;BME280;68071;45.062;7.356;2023-04-20T00:03:55;94660.78;;;11.05;66.16
49999;BME280;68071;45.062;7.356;2023-04-20T00:07:00;94657.50;;;10.90;67.13
49999;BME280;68071;45.062;7.356;2023-04-20T00:10:04;94656.34;;;10.68;68.16
49999;BME280;68071;45.062;7.356;2023-04-20T00:13:08;94663.47;;;10.38;70.12
49999;BME280;68071;45.062;7.356;2023-04-20T00:16:12;94669.28;;;10.20;71.61
49999;BME280;68071;45.062;7.356;2023-04-20T00:19:16;94675.72;;;9.51;74.72
49999;BME280;68071;45.062;7.356;2023-04-20T00:22:20;94673.72;;;8.82;79.55
49999;BME280;68071;45.062;7.356;2023-04-20T00:25:24;94667.59;;;9.36;76.42
49999;BME280;68071;45.062;7.356;2023-04-20T00:28:28;94666.75;;;9.43;75.99
49999;BME280;68071;45.062;7.356;2023-04-20T00:31:33;94663.25;;;9.39;75.74
49999;BME280;68071;45.062;7.356;2023-04-20T00:34:56;94668.25;;;8.78;79.73
49999;BME280;68071;45.062;7.356;2023-04-20T00:38:00;94667.66;;;8.53;82.13
49999;BME280;68071;45.062;7.356;2023-04-20T00:41:04;94672.19;;;8.77;80.29
49999;BME280;68071;45.062;7.356;2023-04-20T00:44:09;94665.63;;;8.08;83.75
49999;BME280;68071;45.062;7.356;2023-04-20T00:47:16;94660.63;;;8.44;82.00
49999;BME280;68071;45.062;7.356;2023-04-20T00:50:20;94659.41;;;8.53;80.69
49999;BME280;68071;45.062;7.356;2023-04-20T00:53:25;94659.25;;;8.22;82.57
49999;BME280;68071;45.062;7.356;2023-04-20T00:56:28;94649.34;;;7.68;86.14
49999;BME280;68071;45.062;7.356;2023-04-20T00:59:32;94649.41;;;8.17;83.62
49999;BME280;68071;45.062;7.356;2023-04-20T01:02:36;94643.56;;;8.11;84.48
49999;BME280;68071;45.062;7.356;2023-04-20T01:05:40;94644.25;;;8.23;83.91
49999;BME280;68071;45.062;7.356;2023-04-20T01:08:49;94655.16;;;7.81;86.08
49999;BME280;68071;45.062;7.356;2023-04-20T01:11:53;94653.44;;;7.34;88.14
49999;BME280;68071;45.062;7.356;2023-04-20T01:14:58;94656.50;;;7.47;87.95
49999;BME280;68071;45.062;7.356;2023-04-20T01:18:02;94657.03;;;7.28;87.28
49999;BME280;68071;45.062;7.356;2023-04-20T01:21:06;94657.88;;;6.95;92.04
49999;BME280;68071;45.062;7.356;2023-04-20T01:24:10;94653.78;;;7.51;87.42
49999;BME280;68071;45.062;7.356;2023-04-20T01:27:14;94655.00;;;7.39;88.44
49999;BME280;68071;45.062;7.356;2023-04-20T01:30:20;94653.97;;;6.93;89.13
49999;BME280;68071;45.062;7.356;2023-04-20T01:33:24;94647.25;;;7.08;91.98
49999;BME280;68071;45.062;7.356;2023-04-20T01:36:29;94655.34;;;7.52;90.05
49999;BME280;68071;45.062;7.356;2023-04-20T01:39:35;94657.56;;;7.75;88.25
49999;BME280;68071;45.062;7.356;2023-04-20T01:42:40;94651.56;;;7.09;90.39
49999;BME280;68071;45.062;7.356;2023-04-20T01:45:44;94659.06;;;7.02;92.03
49999;BME280;68071;45.062;7.356;2023-04-20T01:48:49;94651.16;;;7.18;92.48
49999;BME280;68071;45.062;7.356;2023-04-20T01:51:53;94653.81;;;7.40;90.62
49999;BME280;68071;45.062;7.356;2023-04-20T01:54:58;94651.81;;;7.48;91.52
49999;BME280;68071;45.062;7.356;2023-04-20T01:58:02;94653.00;;;8.67;83.45
49999;BME280;68071;45.062;7.356;2023-04-20T02:01:06;94646.13;;;8.40;85.49
49999;BME280;68071;45.062;7.356;2023-04-20T02:04:10;94647.22;;;8.46;85.80
49999;BME280;68071;45.062;7.356;2023-04-20T02:07:16;94642.13;;;7.96;89.33
49999;BME280;68071;45.062;7.356;2023-04-20T02:10:21;94642.34;;;8.20;86.69
49999;BME280;68071;45.062;7.356;2023-04-20T02:13:25;94638.69;;;8.33;86.75
49999;BME280;68071;45.062;7.356;2023-04-20T02:16:29;94639.38;;;8.45;87.30
49999;BME280;68071;45.062;7.356;2023-04-20T02:19:34;94629.44;;;8.09;89.93
49999;BME280;68071;45.062;7.356;2023-04-20T02:22:38;94635.66;;;8.21;86.68
49999;BME280;68071;45.062;7.356;2023-04-20T02:25:42;94630.53;;;8.68;86.40
49999;BME280;68071;45.062;7.356;2023-04-20T02:28:48;94633.38;;;8.57;91.18
49999;BME280;68071;45.062;7.356;2023-04-20T02:31:53;94625.69;;;8.34;90.44
49999;BME280;68071;45.062;7.356;2023-04-20T02:34:57;94625.59;;;8.48;88.59
49999;BME280;68071;45.062;7.356;2023-04-20T02:38:02;94618.31;;;8.69;89.75
49999;BME280;68071;45.062;7.356;2023-04-20T02:41:07;94621.63;;;8.91;87.22
49999;BME280;68071;45.062;7.356;2023-04-20T02:44:12;94627.81;;;9.37;84.73
49999;BME280;68071;45.062;7.356;2023-04-20T02:47:16;94621.66;;;9.26;85.15
49999;BME280;68071;45.062;7.356;2023-04-20T02:50:21;94625.47;;;9.01;87.10
49999;BME280;68071;45.062;7.356;2023-04-20T02:53:43;94626.31;;;8.98;90.62
49999;BME280;68071;45.062;7.356;2023-04-20T02:57:03;94624.91;;;9.17;88.48
49999;BME280;68071;45.062;7.356;2023-04-20T03:00:07;94620.88;;;9.26;90.06
49999;BME280;68071;45.062;7.356;2023-04-20T03:03:32;94621.06;;;9.07;90.02
49999;BME280;68071;45.062;7.356;2023-04-20T03:06:37;94626.25;;;9.02;91.23
49999;BME280;68071;45.062;7.356;2023-04-20T03:09:45;94623.44;;;9.40;87.66
49999;BME280;68071;45.062;7.356;2023-04-20T03:12:49;94625.56;;;9.60;86.21
49999;BME280;68071;45.062;7.356;2023-04-20T03:15:59;94626.22;;;9.40;87.08
49999;BME280;68071;45.062;7.356;2023-04-20T03:19:18;94625.44;;;9.71;84.94
49999;BME280;68071;45.062;7.356;2023-04-20T03:22:22;94622.38;;;9.61;88.18
49999;BME280;68071;45.062;7.356;2023-04-20T03:25:31;94625.97;;;9.27;87.96
49999;BME280;68071;45.062;7.356;2023-04-20T03:28:35;94620.91;;;9.22;87.42
49999;BME280;68071;45.062;7.356;2023-04-20T03:31:39;94618.84;;;9.30;85.79
49999;BME280;68071;45.062;7.356;2023-04-20T03:34:44;94618.31;;;9.42;84.74
49999;BME280;68071;45.062;7.356;2023-04-20T03:37:49;94616.69;;;9.45;86.46
49999;BME280;68071;45.062;7.356;2023-04-20T03:40:52;94606.75;;;9.51;86.08
49999;BME280;68071;45.062;7.356;2023-04-20T03:43:57;94609.25;;;9.42;86.61
49999;BME280;68071;45.062;7.356;2023-04-20T03:47:01;94604.09;;;9.44;86.52
49999;BME280;68071;45.062;7.356;2023-04-20T03:50:05;94602.81;;;9.52;87.22
49999;BME280;68071;45.062;7.356;2023-04-20T03:53:09;94601.50;;;9.60;87.13
49999;BME280;68071;45.062;7.356;2023-04-20T03:56:14;94603.84;;;9.34;89.92
49999;BME280;68071;45.062;7.356;2023-04-20T03:59:19;94601.91;;;9.31;90.86
49999;BME280;68071;45.062;7.356;2023-04-20T04:02:25;94594.00;;;9.33;90.67
49999;BME280;68071;45.062;7.356;2023-04-20T04:05:30;94603.91;;;9.58;87.83
49999;BME280;68071;45.062;7.356;2023-04-20T04:08:34;94589.84;;;10.04;83.90
49999;BME280;68071;45.062;7.356;2023-04-20T04:11:38;94587.03;;;10.31;81.99
49999;BME280;68071;45.062;7.356;2023-04-20T04:14:42;94592.38;;;10.18;83.51
49999;BME280;68071;45.062;7.356;2023-04-20T04:17:49;94590.25;;;9.47;91.23
49999;BME280;68071;45.062;7.356;2023-04-20T04:20:53;94581.41;;;8.98;93.73
49999;BME280;68071;45.062;7.356;2023-04-20T04:23:58;94593.69;;;8.93;94.51
49999;BME280;68071;45.062;7.356;2023-04-20T04:27:11;94576.97;;;9.07;93.29
49999;BME280;68071;45.062;7.356;2023-04-20T04:30:25;94583.75;;;8.65;96.85
49999;BME280;68071;45.062;7.356;2023-04-20T04:33:33;94577.66;;;8.39;99.09
49999;BME280;68071;45.062;7.356;2023-04-20T04:36:39;94584.09;;;8.25;100.00
49999;BME280;68071;45.062;7.356;2023-04-20T04:39:49;94584.53;;;8.20;100.00
49999;BME280;68071;45.062;7.356;2023-04-20T04:43:01;94579.34;;;8.29;99.99
49999;BME280;68071;45.062;7.356;2023-04-20T04:46:07;94584.59;;;8.58;97.39
49999;BME280;68071;45.062;7.356;2023-04-20T04:49:13;94585.88;;;8.42;97.48
49999;BME280;68071;45.062;7.356;2023-04-20T04:52:18;94587.03;;;8.48;96.11
49999;BME280;68071;45.062;7.356;2023-04-20T04:55:22;94589.44;;;8.85;93.08
49999;BME280;68071;45.062;7.356;2023-04-20T04:58:25;94599.78;;;9.12;91.58
49999;BME280;68071;45.062;7.356;2023-04-20T05:01:29;94589.56;;;9.08;88.19
49999;BME280;68071;45.062;7.356;2023-04-20T05:04:33;94594.25;;;8.77;93.56
49999;BME280;68071;45.062;7.356;2023-04-20T05:07:38;94595.00;;;7.86;99.91
49999;BME280;68071;45.062;7.356;2023-04-20T05:10:43;94587.78;;;7.51;100.00
49999;BME280;68071;45.062;7.356;2023-04-20T05:13:47;94586.56;;;7.55;100.00
49999;BME280;68071;45.062;7.356;2023-04-20T05:16:52;94590.84;;;7.60;100.00
49999;BME280;68071;45.062;7.356;2023-04-20T05:19:56;94585.66;;;7.73;100.00
49999;BME280;68071;45.062;7.356;2023-04-20T05:23:00;94596.34;;;7.60;100.00
49999;BME280;68071;45.062;7.356;2023-04-20T05:26:04;94599.53;;;7.55;100.00
49999;BME280;68071;45.062;7.356;2023-04-20T05:29:09;94599.28;;;7.24;100.00
49999;BME280;68071;45.062;7.356;2023-04-20T05:32:13;94588.31;;;7.24;100.00
49999;BME280;68071;45.062;7.356;2023-04-20T05:35:17;94593.81;;;7.28;100.00
49999;BME280;68071;45.062;7.356;2023-04-20T05:38:21;94589.53;;;7.12;100.00
49999;BME280;68071;45.062;7.356;2023-04-20T05:41:25;94595.56;;;7.60;100.00
49999;BME280;68071;45.062;7.356;2023-04-20T05:44:29;94581.88;;;8.05;100.00
49999;BME280;68071;45.062;7.356;2023-04-20T05:47:34;94583.22;;;8.35;100.00
49999;BME280;68071;45.062;7.356;2023-04-20T05:50:37;94582.13;;;8.67;98.53
49999;BME280;68071;45.062;7.356;2023-04-20T05:53:42;94579.34;;;9.05;95.91
49999;BME280;68071;45.062;7.356;2023-04-20T05:56:46;94580.16;;;9.02;98.04
49999;BME280;68071;45.062;7.356;2023-04-20T05:59:50;94576.91;;;9.15;98.63
49999;BME280;68071;45.062;7.356;2023-04-20T06:02:54;94577.06;;;9.31;95.92
49999;BME280;68071;45.062;7.356;2023-04-20T06:05:58;94577.34;;;9.41;95.85
49999;BME280;68071;45.062;7.356;2023-04-20T06:09:02;94574.44;;;9.51;96.67
49999;BME280;68071;45.062;7.356;2023-04-20T06:12:07;94578.25;;;9.61;97.02
49999;BME280;68071;45.062;7.356;2023-04-20T06:15:12;94576.88;;;9.73;97.73
49999;BME280;68071;45.062;7.356;2023-04-20T06:18:17;94569.66;;;9.83;97.14
49999;BME280;68071;45.062;7.356;2023-04-20T06:21:21;94569.66;;;9.83;98.01
49999;BME280;68071;45.062;7.356;2023-04-20T06:24:27;94570.94;;;9.75;98.44
49999;BME280;68071;45.062;7.356;2023-04-20T06:27:30;94561.41;;;10.07;96.37
49999;BME280;68071;45.062;7.356;2023-04-20T06:30:35;94568.97;;;10.50;93.80
49999;BME280;68071;45.062;7.356;2023-04-20T06:33:39;94567.72;;;10.55;93.75
49999;BME280;68071;45.062;7.356;2023-04-20T06:36:43;94563.22;;;10.65;93.25
49999;BME280;68071;45.062;7.356;2023-04-20T06:39:52;94555.84;;;10.58;92.08
49999;BME280;68071;45.062;7.356;2023-04-20T06:42:56;94561.94;;;10.69;93.23
49999;BME280;68071;45.062;7.356;2023-04-20T06:46:00;94562.22;;;11.15;89.34
49999;BME280;68071;45.062;7.356;2023-04-20T06:49:04;94557.59;;;11.29;86.70
49999;BME280;68071;45.062;7.356;2023-04-20T06:52:08;94558.63;;;11.18;87.47
49999;BME280;68071;45.062;7.356;2023-04-20T06:55:12;94551.63;;;11.50;88.23
49999;BME280;68071;45.062;7.356;2023-04-20T06:58:15;94555.25;;;12.17;80.26
49999;BME280;68071;45.062;7.356;2023-04-20T07:01:19;94547.94;;;11.74;84.99
49999;BME280;68071;45.062;7.356;2023-04-20T07:04:24;94551.88;;;12.09;83.31
49999;BME280;68071;45.062;7.356;2023-04-20T07:07:29;94557.66;;;12.48;82.16
49999;BME280;68071;45.062;7.356;2023-04-20T07:10:33;94557.25;;;12.00;81.67
49999;BME280;68071;45.062;7.356;2023-04-20T07:13:37;94554.88;;;11.82;85.11
49999;BME280;68071;45.062;7.356;2023-04-20T07:16:41;94548.88;;;11.67;86.76
49999;BME280;68071;45.062;7.356;2023-04-20T07:19:45;94555.13;;;11.88;86.03
49999;BME280;68071;45.062;7.356;2023-04-20T07:22:49;94544.44;;;12.23;83.65
49999;BME280;68071;45.062;7.356;2023-04-20T07:25:53;94540.03;;;12.09;83.32
49999;BME280;68071;45.062;7.356;2023-04-20T07:28:57;94550.13;;;12.49;81.13
49999;BME280;68071;45.062;7.356;2023-04-20T07:32:01;94544.91;;;12.67;80.12
49999;BME280;68071;45.062;7.356;2023-04-20T07:35:06;94539.81;;;12.66;79.34
49999;BME280;68071;45.062;7.356;2023-04-20T07:38:10;94540.66;;;12.00;86.20
49999;BME280;68071;45.062;7.356;2023-04-20T07:41:14;94540.16;;;11.69;88.16
49999;BME280;68071;45.062;7.356;2023-04-20T07:44:18;94540.47;;;12.07;83.42
49999;BME280;68071;45.062;7.356;2023-04-20T07:47:22;94548.63;;;11.94;85.11
49999;BME280;68071;45.062;7.356;2023-04-20T07:50:27;94531.94;;;12.48;79.59
49999;BME280;68071;45.062;7.356;2023-04-20T07:53:31;94543.66;;;12.22;82.49
49999;BME280;68071;45.062;7.356;2023-04-20T07:56:36;94539.66;;;11.90;84.41
49999;BME280;68071;45.062;7.356;2023-04-20T07:59:40;94530.25;;;12.04;83.04
49999;BME280;68071;45.062;7.356;2023-04-20T08:02:44;94536.47;;;12.08;84.44
49999;BME280;68071;45.062;7.356;2023-04-20T08:05:47;94540.03;;;12.25;82.12
49999;BME280;68071;45.062;7.356;2023-04-20T08:08:52;94541.59;;;12.10;82.94
49999;BME280;68071;45.062;7.356;2023-04-20T08:11:56;94542.50;;;11.87;83.13
49999;BME280;68071;45.062;7.356;2023-04-20T08:15:00;94541.38;;;11.84;84.30
49999;BME280;68071;45.062;7.356;2023-04-20T08:18:07;94548.03;;;11.87;84.31
49999;BME280;68071;45.062;7.356;2023-04-20T08:21:12;94545.69;;;11.69;85.45
49999;BME280;68071;45.062;7.356;2023-04-20T08:24:16;94547.69;;;11.85;85.88
49999;BME280;68071;45.062;7.356;2023-04-20T08:27:20;94544.56;;;11.83;84.60
49999;BME280;68071;45.062;7.356;2023-04-20T08:30:25;94547.44;;;11.95;82.46
49999;BME280;68071;45.062;7.356;2023-04-20T08:33:29;94550.31;;;12.08;80.42
49999;BME280;68071;45.062;7.356;2023-04-20T08:36:33;94548.75;;;12.07;82.59
49999;BME280;68071;45.062;7.356;2023-04-20T08:39:38;94548.75;;;12.07;82.55
49999;BME280;68071;45.062;7.356;2023-04-20T08:42:42;94547.78;;;11.81;83.88
49999;BME280;68071;45.062;7.356;2023-04-20T08:45:48;94550.81;;;11.87;84.54
49999;BME280;68071;45.062;7.356;2023-04-20T08:48:55;94550.84;;;12.03;83.53
49999;BME280;68071;45.062;7.356;2023-04-20T08:51:59;94548.41;;;12.22;82.28
49999;BME280;68071;45.062;7.356;2023-04-20T08:55:03;94542.19;;;12.18;84.41
49999;BME280;68071;45.062;7.356;2023-04-20T08:58:08;94544.34;;;12.27;83.30
49999;BME280;68071;45.062;7.356;2023-04-20T09:01:12;94543.41;;;12.17;82.96
49999;BME280;68071;45.062;7.356;2023-04-20T09:07:23;94533.72;;;12.08;84.85
49999;BME280;68071;45.062;7.356;2023-04-20T09:10:39;94538.66;;;12.01;83.19
49999;BME280;68071;45.062;7.356;2023-04-20T09:13:43;94537.25;;;12.25;81.97
49999;BME280;68071;45.062;7.356;2023-04-20T09:16:53;94538.88;;;12.39;80.35
49999;BME280;68071;45.062;7.356;2023-04-20T09:20:00;94537.38;;;12.51;80.18
49999;BME280;68071;45.062;7.356;2023-04-20T09:23:18;94539.41;;;12.34;80.33
49999;BME280;68071;45.062;7.356;2023-04-20T09:26:23;94533.16;;;12.76;80.17
49999;BME280;68071;45.062;7.356;2023-04-20T09:29:28;94532.34;;;12.63;80.96
49999;BME280;68071;45.062;7.356;2023-04-20T09:32:32;94528.38;;;12.64;80.39
49999;BME280;68071;45.062;7.356;2023-04-20T09:35:38;94526.06;;;12.29;81.33
49999;BME280;68071;45.062;7.356;2023-04-20T09:38:43;94527.81;;;12.23;82.61
49999;BME280;68071;45.062;7.356;2023-04-20T09:41:49;94532.22;;;12.20;82.08
49999;BME280;68071;45.062;7.356;2023-04-20T09:44:54;94528.00;;;12.16;81.91
49999;BME280;68071;45.062;7.356;2023-04-20T09:47:58;94527.25;;;12.45;80.41
49999;BME280;68071;45.062;7.356;2023-04-20T09:51:03;94523.66;;;12.15;81.98
49999;BME280;68071;45.062;7.356;2023-04-20T09:54:07;94528.66;;;12.53;78.50
49999;BME280;68071;45.062;7.356;2023-04-20T09:57:12;94521.91;;;12.37;79.85
49999;BME280;68071;45.062;7.356;2023-04-20T10:00:17;94515.25;;;12.35;81.09
49999;BME280;68071;45.062;7.356;2023-04-20T10:03:21;94510.84;;;12.04;82.47
49999;BME280;68071;45.062;7.356;2023-04-20T10:06:29;94513.19;;;12.22;80.83
49999;BME280;68071;45.062;7.356;2023-04-20T10:09:34;94516.09;;;12.32;81.13
49999;BME280;68071;45.062;7.356;2023-04-20T10:12:47;94519.31;;;11.97;81.83
49999;BME280;68071;45.062;7.356;2023-04-20T10:15:51;94511.66;;;12.05;80.72
49999;BME280;68071;45.062;7.356;2023-04-20T10:19:00;94509.13;;;12.10;80.34
49999;BME280;68071;45.062;7.356;2023-04-20T10:22:09;94514.09;;;11.83;82.17
49999;BME280;68071;45.062;7.356;2023-04-20T10:25:19;94508.06;;;11.71;81.56
49999;BME280;68071;45.062;7.356;2023-04-20T10:28:23;94499.13;;;11.63;82.58
49999;BME280;68071;45.062;7.356;2023-04-20T10:31:40;94500.44;;;11.59;84.18
49999;BME280;68071;45.062;7.356;2023-04-20T10:34:44;94498.28;;;11.67;83.50
49999;BME280;68071;45.062;7.356;2023-04-20T10:37:50;94492.75;;;11.67;82.79
49999;BME280;68071;45.062;7.356;2023-04-20T10:40:54;94494.22;;;11.71;83.49
49999;BME280;68071;45.062;7.356;2023-04-20T10:44:08;94484.69;;;11.72;84.75
49999;BME280;68071;45.062;7.356;2023-04-20T10:47:12;94484.25;;;11.74;84.95
49999;BME280;68071;45.062;7.356;2023-04-20T10:50:17;94491.88;;;11.53;87.87
49999;BME280;68071;45.062;7.356;2023-04-20T10:53:22;94477.00;;;11.96;84.86
49999;BME280;68071;45.062;7.356;2023-04-20T10:56:26;94478.03;;;11.53;86.37
49999;BME280;68071;45.062;7.356;2023-04-20T10:59:30;94475.47;;;11.26;90.56
49999;BME280;68071;45.062;7.356;2023-04-20T11:02:35;94476.19;;;11.46;88.99
49999;BME280;68071;45.062;7.356;2023-04-20T11:05:39;94466.25;;;11.32;89.32
49999;BME280;68071;45.062;7.356;2023-04-20T11:08:43;94474.97;;;11.31;90.18
49999;BME280;68071;45.062;7.356;2023-04-20T11:12:01;94477.59;;;11.55;89.26
49999;BME280;68071;45.062;7.356;2023-04-20T11:15:07;94464.56;;;11.72;90.61
49999;BME280;68071;45.062;7.356;2023-04-20T11:18:12;94474.41;;;10.83;96.05
49999;BME280;68071;45.062;7.356;2023-04-20T11:21:16;94474.19;;;10.53;100.00
49999;BME280;68071;45.062;7.356;2023-04-20T11:24:22;94453.66;;;10.74;100.00
49999;BME280;68071;45.062;7.356;2023-04-20T11:27:26;94464.56;;;10.62;99.26
49999;BME280;68071;45.062;7.356;2023-04-20T11:30:38;94464.03;;;10.26;100.00
49999;BME280;68071;45.062;7.356;2023-04-20T11:33:42;94459.72;;;10.25;100.00
49999;BME280;68071;45.062;7.356;2023-04-20T11:36:46;94461.94;;;10.54;100.00
49999;BME280;68071;45.062;7.356;2023-04-20T11:40:04;94459.19;;;10.74;100.00
49999;BME280;68071;45.062;7.356;2023-04-20T11:43:12;94458.69;;;10.59;100.00
49999;BME280;68071;45.062;7.356;2023-04-20T11:46:20;94455.50;;;10.17;100.00
49999;BME280;68071;45.062;7.356;2023-04-20T11:49:26;94453.03;;;10.23;100.00
49999;BME280;68071;45.062;7.356;2023-04-20T11:52:30;94462.38;;;10.29;100.00
49999;BME280;68071;45.062;7.356;2023-04-20T11:55:34;94460.25;;;10.61;100.00
49999;BME280;68071;45.062;7.356;2023-04-20T11:58:38;94447.81;;;10.89;100.00
49999;BME280;68071;45.062;7.356;2023-04-20T12:01:43;94445.44;;;11.08;100.00
49999;BME280;68071;45.062;7.356;2023-04-20T12:04:47;94445.69;;;10.97;100.00
49999;BME280;68071;45.062;7.356;2023-04-20T12:07:51;94449.91;;;10.65;100.00
49999;BME280;68071;45.062;7.356;2023-04-20T12:10:54;94455.97;;;10.76;100.00
49999;BME280;68071;45.062;7.356;2023-04-20T12:13:59;94445.38;;;10.74;100.00
49999;BME280;68071;45.062;7.356;2023-04-20T12:17:03;94444.38;;;11.01;100.00
49999;BME280;68071;45.062;7.356;2023-04-20T12:20:08;94452.47;;;11.29;100.00
49999;BME280;68071;45.062;7.356;2023-04-20T12:23:14;94448.56;;;11.79;97.07
49999;BME280;68071;45.062;7.356;2023-04-20T12:26:19;94444.13;;;11.82;100.00
49999;BME280;68071;45.062;7.356;2023-04-20T12:29:23;94444.88;;;11.83;98.08
49999;BME280;68071;45.062;7.356;2023-04-20T12:32:27;94441.78;;;11.31;99.77
49999;BME280;68071;45.062;7.356;2023-04-20T12:35:31;94437.38;;;11.67;96.86
49999;BME280;68071;45.062;7.356;2023-04-20T12:38:35;94435.81;;;11.99;95.96
49999;BME280;68071;45.062;7.356;2023-04-20T12:41:40;94431.75;;;12.03;95.88
49999;BME280;68071;45.062;7.356;2023-04-20T12:44:44;94438.50;;;12.19;95.41
49999;BME280;68071;45.062;7.356;2023-04-20T12:47:48;94423.25;;;11.94;94.70
49999;BME280;68071;45.062;7.356;2023-04-20T12:50:52;94434.25;;;11.81;100.00
49999;BME280;68071;45.062;7.356;2023-04-20T12:53:56;94419.91;;;12.32;98.45
49999;BME280;68071;45.062;7.356;2023-04-20T12:57:01;94425.75;;;12.51;96.06
49999;BME280;68071;45.062;7.356;2023-04-20T13:00:06;94431.50;;;12.86;92.61
49999;BME280;68071;45.062;7.356;2023-04-20T13:03:11;94413.50;;;12.35;97.19
49999;BME280;68071;45.062;7.356;2023-04-20T13:06:15;94420.66;;;12.62;91.73
49999;BME280;68071;45.062;7.356;2023-04-20T13:09:19;94417.28;;;12.12;90.07
49999;BME280;68071;45.062;7.356;2023-04-20T13:12:23;94415.53;;;12.18;89.62
49999;BME280;68071;45.062;7.356;2023-04-20T13:15:27;94419.44;;;12.04;87.66
49999;BME280;68071;45.062;7.356;2023-04-20T13:18:32;94423.19;;;11.81;90.44
49999;BME280;68071;45.062;7.356;2023-04-20T13:21:36;94425.78;;;11.88;92.00
49999;BME280;68071;45.062;7.356;2023-04-20T13:24:40;94420.34;;;11.68;93.88
49999;BME280;68071;45.062;7.356;2023-04-20T13:27:44;94420.00;;;11.49;94.22
49999;BME280;68071;45.062;7.356;2023-04-20T13:30:48;94422.00;;;11.49;92.16
49999;BME280;68071;45.062;7.356;2023-04-20T13:33:52;94422.59;;;11.57;97.64
49999;BME280;68071;45.062;7.356;2023-04-20T13:36:57;94427.19;;;11.47;98.31
49999;BME280;68071;45.062;7.356;2023-04-20T13:40:01;94430.19;;;11.36;94.52
49999;BME280;68071;45.062;7.356;2023-04-20T13:43:07;94432.53;;;11.38;96.12
49999;BME280;68071;45.062;7.356;2023-04-20T13:46:11;94432.00;;;11.26;95.50
49999;BME280;68071;45.062;7.356;2023-04-20T13:49:15;94428.28;;;11.16;100.00
49999;BME280;68071;45.062;7.356;2023-04-20T13:52:19;94419.47;;;11.38;98.12
49999;BME280;68071;45.062;7.356;2023-04-20T13:55:23;94430.44;;;11.25;99.29
49999;BME280;68071;45.062;7.356;2023-04-20T13:58:27;94434.16;;;11.18;100.00
49999;BME280;68071;45.062;7.356;2023-04-20T14:01:32;94425.59;;;11.13;100.00
49999;BME280;68071;45.062;7.356;2023-04-20T14:04:36;94419.81;;;11.24;100.00
49999;BME280;68071;45.062;7.356;2023-04-20T14:07:40;94413.94;;;11.22;100.00
49999;BME280;68071;45.062;7.356;2023-04-20T14:10:44;94419.19;;;11.16;100.00
49999;BME280;68071;45.062;7.356;2023-04-20T14:13:47;94424.56;;;11.40;100.00
49999;BME280;68071;45.062;7.356;2023-04-20T14:16:52;94421.88;;;11.19;100.00
49999;BME280;68071;45.062;7.356;2023-04-20T14:19:56;94415.34;;;10.93;100.00
49999;BME280;68071;45.062;7.356;2023-04-20T14:23:00;94411.28;;;10.61;100.00
49999;BME280;68071;45.062;7.356;2023-04-20T14:26:04;94410.81;;;10.46;100.00
49999;BME280;68071;45.062;7.356;2023-04-20T14:29:08;94414.91;;;10.58;100.00
49999;BME280;68071;45.062;7.356;2023-04-20T14:32:12;94415.03;;;10.51;100.00
49999;BME280;68071;45.062;7.356;2023-04-20T14:35:16;94406.84;;;10.47;100.00
49999;BME280;68071;45.062;7.356;2023-04-20T14:38:20;94411.09;;;10.52;100.00
49999;BME280;68071;45.062;7.356;2023-04-20T14:41:23;94412.84;;;10.62;100.00
49999;BME280;68071;45.062;7.356;2023-04-20T14:44:27;94417.25;;;10.59;100.00
49999;BME280;68071;45.062;7.356;2023-04-20T14:47:32;94420.41;;;10.78;100.00
49999;BME280;68071;45.062;7.356;2023-04-20T14:50:35;94415.38;;;11.10;100.00
49999;BME280;68071;45.062;7.356;2023-04-20T14:53:39;94420.31;;;11.02;100.00
49999;BME280;68071;45.062;7.356;2023-04-20T14:56:43;94411.31;;;10.98;100.00
49999;BME280;68071;45.062;7.356;2023-04-20T14:59:47;94406.22;;;11.13;100.00
49999;BME280;68071;45.062;7.356;2023-04-20T15:02:51;94405.56;;;10.88;100.00
49999;BME280;68071;45.062;7.356;2023-04-20T15:05:58;94406.81;;;10.67;100.00
49999;BME280;68071;45.062;7.356;2023-04-20T15:09:02;94405.94;;;11.07;100.00
49999;BME280;68071;45.062;7.356;2023-04-20T15:12:07;94406.16;;;10.80;100.00
49999;BME280;68071;45.062;7.356;2023-04-20T15:15:11;94403.44;;;10.96;100.00
49999;BME280;68071;45.062;7.356;2023-04-20T15:18:16;94401.19;;;10.91;100.00
49999;BME280;68071;45.062;7.356;2023-04-20T15:21:21;94399.06;;;11.15;100.00
49999;BME280;68071;45.062;7.356;2023-04-20T15:24:26;94402.16;;;11.17;100.00
49999;BME280;68071;45.062;7.356;2023-04-20T15:27:30;94397.69;;;11.24;100.00
49999;BME280;68071;45.062;7.356;2023-04-20T15:30:34;94398.19;;;11.02;100.00
49999;BME280;68071;45.062;7.356;2023-04-20T15:33:39;94392.28;;;10.83;100.00
49999;BME280;68071;45.062;7.356;2023-04-20T15:36:43;94391.53;;;10.63;100.00
49999;BME280;68071;45.062;7.356;2023-04-20T15:39:47;94401.22;;;10.51;100.00
49999;BME280;68071;45.062;7.356;2023-04-20T15:42:51;94394.22;;;10.46;100.00
49999;BME280;68071;45.062;7.356;2023-04-20T15:45:55;94391.03;;;10.48;100.00
49999;BME280;68071;45.062;7.356;2023-04-20T15:48:58;94400.75;;;10.56;100.00
49999;BME280;68071;45.062;7.356;2023-04-20T15:52:02;94401.09;;;10.58;100.00
49999;BME280;68071;45.062;7.356;2023-04-20T15:55:09;94412.06;;;10.62;100.00
49999;BME280;68071;45.062;7.356;2023-04-20T15:58:13;94421.25;;;10.75;100.00
49999;BME280;68071;45.062;7.356;2023-04-20T16:01:18;94422.41;;;10.57;100.00
49999;BME280;68071;45.062;7.356;2023-04-20T16:04:22;94422.41;;;10.57;100.00
49999;BME280;68071;45.062;7.356;2023-04-20T16:07:26;94432.81;;;10.50;100.00
49999;BME280;68071;45.062;7.356;2023-04-20T16:10:30;94430.69;;;10.37;100.00
49999;BME280;68071;45.062;7.356;2023-04-20T16:13:34;94428.97;;;10.23;100.00
49999;BME280;68071;45.062;7.356;2023-04-20T16:16:39;94439.22;;;10.23;100.00
49999;BME280;68071;45.062;7.356;2023-04-20T16:19:43;94441.22;;;10.22;100.00
49999;BME280;68071;45.062;7.356;2023-04-20T16:22:47;94441.84;;;10.30;100.00